Udon Thani, Thailand

2:07 PM ICT on May 07, 2015 (GMT +0700)
Wattay International | | Change Station
CLOSE
Current Station
Airport
Location: Vientiane,
Elevation: 561 ft
Nearby Weather Stations

Elev 561 ft 17.95 °N, 102.57 °E | Updated 37 minutes ago

Scattered Clouds
Scattered Clouds
99 °F
Feels Like 112 °F
N
2
Wind Variable Wind from West

Today
High -- | Low -- °F
--% Chance of Precip.
Yesterday
High -- | Low -- °F
Precip. -- in
5:40 AM 6:30 PM
Waning Gibbous, 90% visible
Pressure 29.71 in
Visibility 6.2 miles
Clouds Scattered Clouds 2000 ft
Heat Index 112 °F
Dew Point 75 °F
Humidity 47%
Rainfall 0.00 in
Snow Depth Not available.
UV 13 out of 12
Pollen Not available.
Air Quality Not available.
Flu Activity Not available.
METAR VLVT 070630Z 27002KT 9999 SCT020 37/24 Q1006 NOSIG

More Conditions Fewer Conditions

Pressure 29.71 in
Visibility 6.2 miles
Clouds Scattered Clouds 2000 ft
Heat Index 112 °F
Dew Point 75 °F
Humidity 47%
Rainfall 0.00 in
Snow Depth Not available.
UV 13 out of 12
Pollen Not available.
Air Quality Not available.
Flu Activity Not available.
METAR VLVT 070630Z 27002KT 9999 SCT020 37/24 Q1006 NOSIG

More Conditions Fewer Conditions

10-Day Weather Forecast

Almanac

Astronomy

May. 07, 2015 Rise Set
Actual Time
Civil Twilight
Nautical Twilight
Astronomical Twilight
Moon
Length of Visible Light
Length of Day
Tomorrow will be .
, % of the Moon is Illuminated

Today's Extremes

Country Highs Country Lows

Community

WunderPhotos

Upload Photos

1,819,126 photos uploaded!

WunderBlogs® & News

Nearby

Air Quality

  Air Quality AQ Index Pollutant
Not available.

Snow Depth

Station Depth Elevation

Earthquake Activity

City Distance Mag. Time & Date
Minimum magnitude displayed is 2.5.

Coastal Water Temperatures

Place Temperature

Stations

Nearby Weather Stations

Station Location Temp. Windchill Dew Point Humidity Wind Precip. Elev Updated Type